Terminal Aerodrome Forecast
Issued by NWS Des Moines, IA

Home | Current Version | Previous Version | Text Only | Print | Product List | Glossary On
Versions: 1 2 3 4 5 6 7 8 9 10 11 12 13 14 15 16 17 18 19 20 21 22 23 24 25 26 27 28
000
FTUS43 KDMX 211742
TAFALO
TAF
KALO 211742Z 2118/2218 19006KT P6SM VCSH SCT045 BKN090
     FM212200 20012KT P6SM SCT110
     FM220100 VRB06KT 6SM BR VCTS SCT050CB BKN120
      TEMPO 2201/2203 4SM -TSRA BR BKN035CB
     FM220600 VRB04KT 2SM BR SCT008 BKN120
     FM221500 23004KT 6SM BR BKN035
     FM221700 29006KT P6SM BKN120=

USA.gov is the U.S. government's official web portal to all federal, state and local government web resources and services.